To NAV CANADA Home Page Login to a new session Search on AWWS site Feedback and Comments Disclaimer Vers la page française équivalente Tips FAQ What's new on the site To the Forecasts and Observations / NOTAM section To "File a Flight Plan" website Publications and other links Update of the User's profile FIC Telephone Numbers My Weather Data Folder Route Weather Data Regional Weather Data Local Weather Data To the Forecasts and Observations / NOTAM section
Request Generated 04/28/2015 at 06:47:43 UTC . Weather information available at that time is displayed.

METAR/TAF

MARYS HARBOUR/NL    (show WxCam)

SPECI CYMH 280623Z AUTO 04016G24KT 1 1/4SM BR OVC003 01/00 A2999 RMK
SLP155=
SPECI CYMH 280616Z AUTO 04017G25KT 2 1/4SM BR OVC005 01/00 A2999 RMK
SLP155=
SPECI CYMH 280614Z AUTO 04018G25KT 2 1/2SM BR OVC005 01/00 A2998 RMK
SLP154=
SPECI CYMH 280606Z AUTO 04018G25KT 5SM BR OVC005 01/00 A2999 RMK
SLP155=
METAR CYMH 280600Z AUTO 04017G25KT 6SM BR OVC005 01/00 A2999 RMK
SLP155=
SPECI CYMH 280554Z AUTO 04016G24KT 6SM BR OVC005 01/00 A2999 RMK
SLP155=
SPECI CYMH 280522Z AUTO 03012G19KT 6SM BR OVC007 02/01 A2999 RMK
SLP157=
METAR CYMH 280500Z AUTO 03012G20KT 5SM BR OVC007 01/01 A3000 RMK
SLP158=
SPECI CYMH 280413Z AUTO 03012G20KT 5SM BR OVC007 02/01 A3000 RMK
SLP161=
METAR CYMH 280400Z AUTO 03014KT 5SM BR OVC005 01/01 A3001 RMK SLP162=

*** REMARK        : Forecast period has ended; this was the last TAF issued
*** REMARQUE : La période de prévision est échue; ceci était le dernier TAF qui a été émis
TAF AMD CYMH 272316Z 2723/2803 02010G20KT P6SM -RA SCT008 BKN040
TEMPO 2723/2724 2SM -RA BR BKN008
FM280000 04015KT 1/2SM -RA FG VV002 TEMPO 2800/2803 6SM -RA BR
OVC008
RMK FCST BASED ON AUTO OBS. NXT FCST WILL BE ISSUED AT 280845Z=
Your time UTC time
Weather data provided by Environment Canada and NAV CANADA